createdAt,value
2023-04-02T00:00:11.867Z,100640.77
2023-04-02T00:03:09.963Z,100643.14
2023-04-02T00:05:50.509Z,100639.61
2023-04-02T00:08:39.081Z,100646.79
2023-04-02T00:11:07.157Z,100652.48
2023-04-02T00:13:43.976Z,100647.23
2023-04-02T00:16:13.785Z,100650.11
2023-04-02T00:18:45.543Z,100652.45
2023-04-02T00:21:21.333Z,100658.54
2023-04-02T00:23:49.261Z,100659.44
2023-04-02T00:26:53.059Z,100662.11
2023-04-02T00:29:21.137Z,100664.20
2023-04-02T00:31:52.881Z,100669.67
2023-04-02T00:34:22.744Z,100665.90
2023-04-02T00:36:51.292Z,100670.58
2023-04-02T00:39:27.532Z,100664.70
2023-04-02T00:42:05.434Z,100670.33
2023-04-02T00:44:38.748Z,100672.02
2023-04-02T00:47:21.606Z,100666.13
2023-04-02T00:49:52.124Z,100671.54
2023-04-02T00:52:22.454Z,100673.69
2023-04-02T00:55:10.681Z,100677.48
2023-04-02T00:57:38.833Z,100674.22
2023-04-02T01:00:35.176Z,100681.46
2023-04-02T01:03:19.571Z,100686.66
2023-04-02T01:05:56.440Z,100687.50
2023-04-02T01:08:43.212Z,100695.07
2023-04-02T01:11:39.558Z,100698.93
2023-04-02T01:14:42.888Z,100706.14
2023-04-02T01:17:33.022Z,100709.23
2023-04-02T01:20:25.626Z,100711.84
2023-04-02T01:23:13.811Z,100713.74
2023-04-02T01:25:45.099Z,100717.23
2023-04-02T01:28:19.747Z,100720.76
2023-04-02T01:30:51.630Z,100717.13
2023-04-02T01:33:21.964Z,100720.70
2023-04-02T01:35:58.089Z,100726.40
2023-04-02T01:38:33.053Z,100730.18
2023-04-02T01:41:27.147Z,100727.64
2023-04-02T01:44:03.172Z,100736.00
2023-04-02T01:46:32.535Z,100736.61
2023-04-02T01:49:02.772Z,100738.45
2023-04-02T01:51:32.709Z,100744.41
2023-04-02T01:54:03.648Z,100738.04
2023-04-02T01:56:31.721Z,100746.42
2023-04-02T01:58:59.717Z,100749.37
2023-04-02T02:01:52.102Z,100752.40
2023-04-02T02:04:20.093Z,100753.93
2023-04-02T02:06:48.787Z,100757.54
2023-04-02T02:09:23.305Z,100758.63
2023-04-02T02:11:51.871Z,100762.48
2023-04-02T02:14:22.182Z,100763.53
2023-04-02T02:16:50.463Z,100765.10
2023-04-02T02:19:25.761Z,100766.82
2023-04-02T02:22:26.526Z,100767.58
2023-04-02T02:24:55.407Z,100773.98
2023-04-02T02:27:23.562Z,100779.39
2023-04-02T02:30:11.772Z,100779.79
2023-04-02T02:32:54.086Z,100783.34
2023-04-02T02:35:28.783Z,100784.10
2023-04-02T02:38:32.972Z,100782.16
2023-04-02T02:41:08.162Z,100784.54
2023-04-02T02:43:36.527Z,100790.29
2023-04-02T02:46:04.618Z,100786.22
2023-04-02T02:48:37.781Z,100790.46
2023-04-02T02:51:09.317Z,100791.73
2023-04-02T02:53:46.512Z,100790.84
2023-04-02T02:56:14.646Z,100800.90
2023-04-02T02:58:44.817Z,100804.84
2023-04-02T03:01:23.070Z,100802.10
2023-04-02T03:03:53.749Z,100809.54
2023-04-02T03:06:22.347Z,100816.11
2023-04-02T03:09:15.054Z,100817.30
2023-04-02T03:11:48.879Z,100820.84
2023-04-02T03:14:39.349Z,100823.38
2023-04-02T03:17:13.325Z,100824.20
2023-04-02T03:19:45.944Z,100829.37
2023-04-02T03:22:22.014Z,100833.40
2023-04-02T03:24:59.811Z,100836.23
2023-04-02T03:27:32.297Z,100838.92
2023-04-02T03:30:15.685Z,100837.19
2023-04-02T03:32:44.198Z,100841.11
2023-04-02T03:35:31.937Z,100845.81
2023-04-02T03:38:21.105Z,100849.52
2023-04-02T03:40:53.823Z,100852.70
2023-04-02T03:43:26.496Z,100858.10
2023-04-02T03:45:59.732Z,100858.94
2023-04-02T03:48:39.207Z,100866.62
2023-04-02T03:51:13.703Z,100873.94
2023-04-02T03:53:42.088Z,100880.55
2023-04-02T03:56:13.392Z,100884.27
2023-04-02T03:58:44.427Z,100888.36
2023-04-02T04:01:26.512Z,100888.09
2023-04-02T04:03:55.600Z,100897.10
2023-04-02T04:06:33.357Z,100897.63
2023-04-02T04:09:10.163Z,100902.95
2023-04-02T04:11:40.690Z,100908.77
2023-04-02T04:14:21.779Z,100911.29
2023-04-02T04:17:09.519Z,100911.73
2023-04-02T04:19:45.602Z,100918.43
2023-04-02T04:22:30.457Z,100919.98
2023-04-02T04:25:05.452Z,100926.90
2023-04-02T04:28:05.960Z,100931.40
2023-04-02T04:30:42.518Z,100926.50
2023-04-02T04:33:23.302Z,100934.73
2023-04-02T04:35:56.812Z,100936.66
2023-04-02T04:38:28.679Z,100940.45
2023-04-02T04:41:02.254Z,100941.98
2023-04-02T04:43:56.066Z,100947.36
2023-04-02T04:46:31.712Z,100950.61
2023-04-02T04:49:22.373Z,100958.08
2023-04-02T04:51:56.457Z,100960.58
2023-04-02T04:54:27.997Z,100964.04
2023-04-02T04:57:02.256Z,100964.72
2023-04-02T04:59:32.498Z,100972.27
2023-04-02T05:02:07.953Z,100973.80
2023-04-02T05:04:38.176Z,100980.40
2023-04-02T05:07:11.080Z,100984.02
2023-04-02T05:10:05.876Z,100991.57
2023-04-02T05:12:44.170Z,100992.77
2023-04-02T05:15:21.686Z,100995.41
2023-04-02T05:18:07.623Z,101004.00
2023-04-02T05:20:50.837Z,101005.10
2023-04-02T05:23:29.127Z,101011.06
2023-04-02T05:26:06.756Z,101013.86
2023-04-02T05:28:47.639Z,101017.86
2023-04-02T05:31:20.147Z,101020.29
2023-04-02T05:33:49.087Z,101018.57
2023-04-02T05:36:25.345Z,101017.06
2023-04-02T05:38:57.537Z,101021.94
2023-04-02T05:41:36.911Z,101028.85
2023-04-02T05:44:27.064Z,101032.47
2023-04-02T05:46:58.396Z,101035.89
2023-04-02T05:49:39.644Z,101037.38
2023-04-02T05:52:14.506Z,101038.11
2023-04-02T05:54:49.607Z,101043.15
2023-04-02T05:57:29.585Z,101046.63
2023-04-02T06:00:13.625Z,101051.44
2023-04-02T06:02:45.325Z,101059.59
2023-04-02T06:05:17.146Z,101059.44
2023-04-02T06:08:06.646Z,101064.73
2023-04-02T06:10:37.747Z,101071.31
2023-04-02T06:13:08.653Z,101070.98
2023-04-02T06:15:44.979Z,101078.52
2023-04-02T06:18:30.523Z,101079.02
2023-04-02T06:20:58.891Z,101080.00
2023-04-02T06:23:38.664Z,101082.80
2023-04-02T06:26:10.606Z,101088.84
2023-04-02T06:28:48.227Z,101097.09
2023-04-02T06:31:37.572Z,101099.09
2023-04-02T06:34:14.341Z,101100.54
2023-04-02T06:36:45.534Z,101105.12
2023-04-02T06:39:24.422Z,101112.00
2023-04-02T06:41:59.147Z,101111.93
2023-04-02T06:44:46.422Z,101112.80
2023-04-02T06:47:37.590Z,101120.06
2023-04-02T06:50:28.174Z,101122.95
2023-04-02T06:52:59.266Z,101126.70
2023-04-02T06:55:46.690Z,101127.79
2023-04-02T06:58:17.257Z,101135.11
2023-04-02T07:00:49.876Z,101143.52
2023-04-02T07:03:32.725Z,101143.79
2023-04-02T07:06:07.700Z,101149.73
2023-04-02T07:08:36.367Z,101154.11
2023-04-02T07:11:06.496Z,101156.07
2023-04-02T07:13:39.345Z,101163.73
2023-04-02T07:16:19.260Z,101163.92
2023-04-02T07:18:47.805Z,101173.44
2023-04-02T07:21:16.325Z,101173.46
2023-04-02T07:23:46.144Z,101175.52
2023-04-02T07:26:15.958Z,101179.26
2023-04-02T07:28:50.097Z,101180.60
2023-04-02T07:31:21.908Z,101189.34
2023-04-02T07:33:50.802Z,101188.70
2023-04-02T07:36:22.946Z,101189.70
2023-04-02T07:38:51.174Z,101192.88
2023-04-02T07:41:19.933Z,101190.56
2023-04-02T07:43:48.143Z,101195.00
2023-04-02T07:46:18.327Z,101189.25
2023-04-02T07:48:46.999Z,101199.56
2023-04-02T07:51:19.639Z,101202.14
2023-04-02T07:53:50.584Z,101203.63
2023-04-02T07:56:19.676Z,101206.25
2023-04-02T07:58:48.132Z,101211.68
2023-04-02T08:01:26.651Z,101218.69
2023-04-02T08:03:55.698Z,101217.61
2023-04-02T08:06:24.412Z,101217.75
2023-04-02T08:08:52.407Z,101213.26
2023-04-02T08:11:21.239Z,101223.45
2023-04-02T08:13:49.397Z,101225.50
2023-04-02T08:16:18.102Z,101230.70
2023-04-02T08:18:47.704Z,101240.23
2023-04-02T08:21:16.595Z,101239.52
2023-04-02T08:23:44.941Z,101242.59
2023-04-02T08:26:17.490Z,101243.09
2023-04-02T08:28:45.779Z,101251.70
2023-04-02T08:31:13.914Z,101250.60
2023-04-02T08:33:42.438Z,101257.29
2023-04-02T08:36:16.464Z,101256.14
2023-04-02T08:38:44.765Z,101259.73
2023-04-02T08:41:21.912Z,101264.33
2023-04-02T08:44:01.279Z,101266.97
2023-04-02T08:46:44.888Z,101268.55
2023-04-02T08:49:15.069Z,101274.41
2023-04-02T08:51:43.405Z,101269.75
2023-04-02T08:54:31.883Z,101278.60
2023-04-02T08:57:02.335Z,101281.11
2023-04-02T08:59:39.046Z,101282.75
2023-04-02T09:02:16.404Z,101282.94
2023-04-02T09:04:44.931Z,101285.70
2023-04-02T09:07:17.201Z,101280.90
2023-04-02T09:09:48.669Z,101279.32
2023-04-02T09:12:23.792Z,101282.57
2023-04-02T09:15:01.479Z,101286.27
2023-04-02T09:17:36.924Z,101289.73
2023-04-02T09:20:28.643Z,101292.38
2023-04-02T09:22:57.107Z,101299.52
2023-04-02T09:25:27.272Z,101301.23
2023-04-02T09:27:56.758Z,101307.21
2023-04-02T09:30:51.093Z,101316.30
2023-04-02T09:33:19.419Z,101316.20
2023-04-02T09:35:51.128Z,101318.04
2023-04-02T09:38:30.896Z,101322.02
2023-04-02T09:41:00.195Z,101324.46
2023-04-02T09:43:31.984Z,101335.22
2023-04-02T09:46:23.433Z,101335.98
2023-04-02T09:48:55.461Z,101337.59
2023-04-02T09:51:34.816Z,101343.77
2023-04-02T09:54:03.141Z,101342.03
2023-04-02T09:56:32.445Z,101345.77
2023-04-02T09:59:12.983Z,101352.36
2023-04-02T10:01:45.712Z,101353.58
2023-04-02T10:04:36.096Z,101357.02
2023-04-02T10:07:06.927Z,101363.83
2023-04-02T10:09:36.660Z,101370.30
2023-04-02T10:12:11.082Z,101368.98
2023-04-02T10:14:43.468Z,101369.08
2023-04-02T10:17:21.953Z,101373.13
2023-04-02T10:20:01.034Z,101374.59
2023-04-02T10:22:29.717Z,101379.40
2023-04-02T10:24:58.951Z,101386.39
2023-04-02T10:27:51.293Z,101390.11
2023-04-02T10:30:51.735Z,101398.20
2023-04-02T10:33:28.828Z,101406.34
2023-04-02T10:36:02.822Z,101406.43
2023-04-02T10:38:50.900Z,101410.86
2023-04-02T10:41:22.210Z,101407.94
2023-04-02T10:44:19.493Z,101414.48
2023-04-02T10:47:18.725Z,101412.05
2023-04-02T10:50:15.808Z,101416.44
2023-04-02T10:52:46.939Z,101416.23
2023-04-02T10:55:34.874Z,101424.02
2023-04-02T10:58:06.549Z,101425.89
2023-04-02T11:00:35.679Z,101430.01
2023-04-02T11:03:15.582Z,101437.98
2023-04-02T11:05:44.517Z,101437.59
2023-04-02T11:08:27.494Z,101440.88
2023-04-02T11:11:36.883Z,101440.79
2023-04-02T11:14:31.554Z,101453.10
2023-04-02T11:17:00.831Z,101458.96
2023-04-02T11:19:30.425Z,101466.09
2023-04-02T11:22:01.307Z,101467.62
2023-04-02T11:24:33.117Z,101469.58
2023-04-02T11:27:09.999Z,101467.59
2023-04-02T11:29:44.462Z,101470.86
2023-04-02T11:32:27.634Z,101476.48
2023-04-02T11:35:06.442Z,101472.84
2023-04-02T11:37:45.259Z,101478.36
2023-04-02T11:40:14.875Z,101476.42
2023-04-02T11:42:44.387Z,101482.05
2023-04-02T11:45:21.480Z,101480.14
2023-04-02T11:48:04.195Z,101484.14
2023-04-02T11:50:42.681Z,101489.17
2023-04-02T11:53:11.793Z,101491.34
2023-04-02T11:55:46.572Z,101498.56
2023-04-02T11:58:59.171Z,101497.53
2023-04-02T12:01:44.013Z,101501.71
2023-04-02T12:04:36.868Z,101509.67
2023-04-02T12:07:19.608Z,101521.38
2023-04-02T12:09:48.651Z,101524.05
2023-04-02T12:12:39.014Z,101528.04
2023-04-02T12:15:08.801Z,101535.41
2023-04-02T12:17:38.640Z,101537.02
2023-04-02T12:20:10.102Z,101541.67
2023-04-02T12:22:40.141Z,101539.96
2023-04-02T12:25:29.555Z,101548.20
2023-04-02T12:28:08.683Z,101539.20
2023-04-02T12:30:37.777Z,101543.34
2023-04-02T12:33:30.743Z,101542.80
2023-04-02T12:35:59.872Z,101549.69
2023-04-02T12:38:45.199Z,101544.19
2023-04-02T12:41:24.459Z,101551.20
2023-04-02T12:43:58.729Z,101559.81
2023-04-02T12:46:27.555Z,101562.32
2023-04-02T12:48:58.359Z,101567.66
2023-04-02T12:51:27.957Z,101571.04
2023-04-02T12:53:57.666Z,101575.77
2023-04-02T12:56:27.474Z,101576.16
2023-04-02T12:58:59.452Z,101581.80
2023-04-02T13:01:28.934Z,101584.86
2023-04-02T13:04:08.079Z,101587.98
2023-04-02T13:06:40.318Z,101585.85
2023-04-02T13:09:30.758Z,101593.48
2023-04-02T13:11:59.161Z,101601.90
2023-04-02T13:14:27.449Z,101603.48
2023-04-02T13:16:55.860Z,101603.87
2023-04-02T13:19:24.981Z,101600.88
2023-04-02T13:21:54.286Z,101608.63
2023-04-02T13:24:24.314Z,101615.69
2023-04-02T13:26:55.293Z,101619.94
2023-04-02T13:29:28.744Z,101620.06
2023-04-02T13:32:01.256Z,101620.09
2023-04-02T13:34:31.018Z,101623.59
2023-04-02T13:36:59.169Z,101630.96
2023-04-02T13:39:27.730Z,101638.35
2023-04-02T13:42:03.109Z,101641.34
2023-04-02T13:44:43.707Z,101641.41
2023-04-02T13:47:15.346Z,101647.51
2023-04-02T13:49:43.827Z,101643.92
2023-04-02T13:52:16.022Z,101650.63
2023-04-02T13:54:49.760Z,101647.27
2023-04-02T13:57:22.001Z,101656.16
2023-04-02T13:59:50.308Z,101657.35
2023-04-02T14:02:21.016Z,101659.99
2023-04-02T14:04:53.244Z,101664.33
2023-04-02T14:08:03.119Z,101663.49
2023-04-02T14:10:55.594Z,101667.84
2023-04-02T14:13:46.447Z,101663.05
2023-04-02T14:16:28.447Z,101671.38
2023-04-02T14:19:18.086Z,101672.15
2023-04-02T14:22:31.385Z,101678.89
2023-04-02T14:25:18.048Z,101691.23
2023-04-02T14:28:02.225Z,101689.79
2023-04-02T14:30:40.289Z,101701.52
2023-04-02T14:33:25.093Z,101694.45
2023-04-02T14:35:58.301Z,101701.29
2023-04-02T14:38:43.790Z,101700.73
2023-04-02T14:41:19.867Z,101717.23
2023-04-02T14:44:03.479Z,101709.29
2023-04-02T14:46:32.534Z,101704.35
2023-04-02T14:49:11.596Z,101716.59
2023-04-02T14:52:10.635Z,101726.88
2023-04-02T14:54:42.966Z,101713.95
2023-04-02T14:57:26.551Z,101716.90
2023-04-02T15:00:04.822Z,101728.53
2023-04-02T15:02:39.177Z,101737.83
2023-04-02T15:05:46.896Z,101732.47
2023-04-02T15:08:27.766Z,101740.35
2023-04-02T15:11:41.198Z,101751.32
2023-04-02T15:14:21.807Z,101749.25
2023-04-02T15:16:50.002Z,101765.60
2023-04-02T15:19:19.078Z,101764.17
2023-04-02T15:21:58.616Z,101773.20
2023-04-02T15:25:09.840Z,101782.79
2023-04-02T15:28:02.245Z,101781.48
2023-04-02T15:30:43.358Z,101785.13
2023-04-02T15:33:38.836Z,101782.49
2023-04-02T15:36:32.720Z,101792.19
2023-04-02T15:39:34.741Z,101797.56
2023-04-02T15:42:28.882Z,101801.63
2023-04-02T15:45:03.261Z,101808.92
2023-04-02T15:47:39.583Z,101809.29
2023-04-02T15:50:35.714Z,101810.63
2023-04-02T15:53:24.718Z,101815.98
2023-04-02T15:56:26.664Z,101826.88
2023-04-02T15:59:10.024Z,101829.30
2023-04-02T16:02:00.713Z,101834.02
2023-04-02T16:04:47.371Z,101833.14
2023-04-02T16:07:48.930Z,101841.55
2023-04-02T16:10:41.330Z,101851.23
2023-04-02T16:13:28.723Z,101857.02
2023-04-02T16:16:21.994Z,101854.43
2023-04-02T16:18:52.785Z,101857.73
2023-04-02T16:21:23.590Z,101863.32
2023-04-02T16:23:51.857Z,101863.77
2023-04-02T16:26:50.407Z,101875.81
2023-04-02T16:29:31.957Z,101881.36
2023-04-02T16:32:24.455Z,101878.95
2023-04-02T16:35:42.707Z,101886.41
2023-04-02T16:38:15.918Z,101895.45
2023-04-02T16:41:08.923Z,101898.36
2023-04-02T16:43:56.562Z,101898.50
2023-04-02T16:46:54.616Z,101901.05
2023-04-02T16:49:28.648Z,101908.61
2023-04-02T16:52:03.855Z,101910.09
2023-04-02T16:54:52.642Z,101913.52
2023-04-02T16:57:24.116Z,101918.92
2023-04-02T17:00:34.871Z,101926.80
2023-04-02T17:03:18.738Z,101928.77
2023-04-02T17:06:15.577Z,101930.80
2023-04-02T17:09:04.568Z,101935.58
2023-04-02T17:11:37.317Z,101942.52
2023-04-02T17:14:10.866Z,101944.71
2023-04-02T17:16:43.751Z,101945.94
2023-04-02T17:19:13.576Z,101953.48
2023-04-02T17:21:43.425Z,101954.23
2023-04-02T17:24:18.486Z,101964.65
2023-04-02T17:26:48.699Z,101970.44
2023-04-02T17:29:22.144Z,101966.88
2023-04-02T17:31:50.326Z,101962.90
2023-04-02T17:34:19.115Z,101969.77
2023-04-02T17:37:06.218Z,101974.20
2023-04-02T17:39:42.711Z,101981.30
2023-04-02T17:42:15.886Z,101979.92
2023-04-02T17:44:58.264Z,101988.70
2023-04-02T17:47:29.305Z,101986.62
2023-04-02T17:50:31.663Z,101988.23
2023-04-02T17:53:36.890Z,101990.88
2023-04-02T17:56:07.128Z,101997.14
2023-04-02T17:58:41.490Z,102005.64
2023-04-02T18:01:16.124Z,102009.34
2023-04-02T18:03:47.956Z,102015.31
2023-04-02T18:06:45.897Z,102014.01
2023-04-02T18:09:43.481Z,102022.41
2023-04-02T18:12:18.932Z,102021.73
2023-04-02T18:14:58.973Z,102031.89
2023-04-02T18:17:53.279Z,102034.05
2023-04-02T18:20:35.682Z,102042.92
2023-04-02T18:23:16.061Z,102047.50
2023-04-02T18:25:54.478Z,102047.86
2023-04-02T18:28:32.530Z,102049.48
2023-04-02T18:31:19.376Z,102059.95
2023-04-02T18:34:11.696Z,102060.62
2023-04-02T18:36:52.066Z,102063.86
2023-04-02T18:39:28.893Z,102077.43
2023-04-02T18:42:06.142Z,102079.56
2023-04-02T18:45:08.105Z,102087.77
2023-04-02T18:48:01.248Z,102087.92
2023-04-02T18:50:33.999Z,102093.84
2023-04-02T18:53:13.382Z,102100.98
2023-04-02T18:55:47.849Z,102101.55
2023-04-02T18:58:21.321Z,102109.20
2023-04-02T19:00:49.408Z,102115.13
2023-04-02T19:03:28.532Z,102115.92
2023-04-02T19:06:01.429Z,102129.31
2023-04-02T19:08:32.174Z,102133.69
2023-04-02T19:11:28.525Z,102135.08
2023-04-02T19:14:07.370Z,102134.65
2023-04-02T19:16:38.263Z,102141.35
2023-04-02T19:19:12.557Z,102135.98
2023-04-02T19:21:47.476Z,102140.39
2023-04-02T19:24:28.493Z,102142.08
2023-04-02T19:27:15.229Z,102150.29
2023-04-02T19:30:22.832Z,102150.11
2023-04-02T19:33:09.150Z,102153.96
2023-04-02T19:35:44.929Z,102158.81
2023-04-02T19:38:12.890Z,102156.56
2023-04-02T19:40:46.992Z,102164.48
2023-04-02T19:43:15.260Z,102162.98
2023-04-02T19:45:44.383Z,102166.75
2023-04-02T19:48:16.373Z,102171.02
2023-04-02T19:50:44.760Z,102171.99
2023-04-02T19:53:13.941Z,102172.24
2023-04-02T19:55:42.440Z,102170.73
2023-04-02T19:58:24.776Z,102170.98
2023-04-02T20:00:53.474Z,102177.66
2023-04-02T20:03:22.385Z,102177.85
2023-04-02T20:05:50.846Z,102179.66
2023-04-02T20:08:18.757Z,102181.52
2023-04-02T20:10:47.236Z,102184.34
2023-04-02T20:13:15.211Z,102185.05
2023-04-02T20:15:43.180Z,102190.92
2023-04-02T20:18:11.550Z,102195.75
2023-04-02T20:20:40.775Z,102193.01
2023-04-02T20:23:08.748Z,102198.84
2023-04-02T20:25:36.705Z,102203.07
2023-04-02T20:28:07.541Z,102205.99
2023-04-02T20:30:35.854Z,102207.10
2023-04-02T20:33:04.194Z,102208.59
2023-04-02T20:35:34.744Z,102208.43
2023-04-02T20:38:03.533Z,102215.49
2023-04-02T20:40:31.668Z,102216.49
2023-04-02T20:42:59.798Z,102216.04
2023-04-02T20:45:29.375Z,102221.05
2023-04-02T20:47:57.733Z,102220.90
2023-04-02T20:50:25.684Z,102229.08
2023-04-02T20:52:53.580Z,102231.52
2023-04-02T20:55:21.827Z,102234.24
2023-04-02T20:57:49.833Z,102236.56
2023-04-02T21:00:18.172Z,102239.05
2023-04-02T21:02:46.502Z,102237.20
2023-04-02T21:05:14.616Z,102240.38
2023-04-02T21:07:46.225Z,102243.70
2023-04-02T21:10:14.349Z,102247.60
2023-04-02T21:12:42.600Z,102252.59
2023-04-02T21:15:13.139Z,102249.10
2023-04-02T21:17:41.205Z,102253.82
2023-04-02T21:20:11.422Z,102259.00
2023-04-02T21:22:40.959Z,102257.86
2023-04-02T21:25:09.343Z,102261.83
2023-04-02T21:27:38.017Z,102262.88
2023-04-02T21:30:06.577Z,102266.75
2023-04-02T21:32:34.797Z,102258.52
2023-04-02T21:35:03.110Z,102267.38
2023-04-02T21:37:31.267Z,102268.15
2023-04-02T21:39:59.311Z,102266.88
2023-04-02T21:42:28.028Z,102269.14
2023-04-02T21:44:56.159Z,102271.55
2023-04-02T21:47:25.035Z,102273.17
2023-04-02T21:49:53.117Z,102278.38
2023-04-02T21:52:21.194Z,102281.25
2023-04-02T21:54:49.514Z,102285.89
2023-04-02T21:57:18.990Z,102285.65
2023-04-02T21:59:47.018Z,102289.73
2023-04-02T22:02:14.988Z,102289.78
2023-04-02T22:04:43.068Z,102292.52
2023-04-02T22:07:11.155Z,102297.40
2023-04-02T22:09:39.070Z,102300.83
2023-04-02T22:12:08.221Z,102298.09
2023-04-02T22:14:36.237Z,102302.57
2023-04-02T22:17:04.294Z,102309.21
2023-04-02T22:19:33.153Z,102309.29
2023-04-02T22:22:01.249Z,102309.11
2023-04-02T22:24:29.374Z,102310.42
2023-04-02T22:26:57.306Z,102312.65
2023-04-02T22:29:25.367Z,102311.30
2023-04-02T22:31:53.473Z,102312.91
2023-04-02T22:34:21.492Z,102314.55
2023-04-02T22:36:49.518Z,102313.94
2023-04-02T22:39:17.658Z,102314.14
2023-04-02T22:41:45.856Z,102313.62
2023-04-02T22:44:14.500Z,102316.18
2023-04-02T22:46:42.493Z,102316.20
2023-04-02T22:49:11.664Z,102318.31
2023-04-02T22:51:39.687Z,102321.05
2023-04-02T22:54:07.661Z,102323.12
2023-04-02T22:56:37.537Z,102322.88
2023-04-02T22:59:05.838Z,102324.48
2023-04-02T23:01:34.722Z,102317.41
2023-04-02T23:04:04.966Z,102322.66
2023-04-02T23:06:33.163Z,102325.67
2023-04-02T23:09:01.270Z,102325.02
2023-04-02T23:11:29.494Z,102328.08
2023-04-02T23:13:57.914Z,102328.27
2023-04-02T23:16:27.527Z,102327.45
2023-04-02T23:18:55.946Z,102328.62
2023-04-02T23:21:24.541Z,102326.71
2023-04-02T23:23:52.574Z,102328.71
2023-04-02T23:26:22.678Z,102329.83
2023-04-02T23:28:50.636Z,102332.46
2023-04-02T23:31:21.008Z,102333.13
2023-04-02T23:33:49.592Z,102333.09
2023-04-02T23:36:26.264Z,102333.06
2023-04-02T23:38:55.655Z,102339.30
2023-04-02T23:41:24.783Z,102338.60
2023-04-02T23:43:53.924Z,102345.71
2023-04-02T23:46:23.116Z,102350.46
2023-04-02T23:48:51.851Z,102352.60
2023-04-02T23:51:19.997Z,102351.67
2023-04-02T23:53:49.016Z,102351.95
2023-04-02T23:56:17.351Z,102350.61
2023-04-02T23:58:45.623Z,102350.30
